الصفحة الرئيسية
METAR-TAF:

METAR-TAF

مطار :

أوديسا, أوكرانيا

دائرة عرض: 46-26N, خط طول: 030-46E, ارتفاع: 42 متر

مراقبة الطقس الحالي

تاريخ ووقت الإصدار 24 دقيقة قبل الساعة 08:30UTC
ريح 14 عقدة من الشرق/الشمال الشرقي, الاتجاه يتراوح بين الشمال/الشمال الشرقي و الشرق
درجة الحرارة 0°درجة مئوية
الرطوبة 69%
ضغط 1020 hPa
الرؤية 10 كم أو أكثر
غيوم مفككة على ارتفاع 1900 قدم

METAR: UKOO 220830Z 06007MPS 030V090 9999 BKN019 M00/M05 Q1020 R34/090060 NOSIG

زمن: 10:54 (08:54 UTC)

توقعات

تاريخ ووقت الإصدار 3ساعات و 48 دقيقة قبل الساعة 05:06UTC
التوقعات صالحة من22 الساعة 06 UTC إلى 23 الساعة 06 UTC
ريح 14 عقدة من الشمال الشرقي تتزايد حتى 27 عقدة
الرؤية: 6000 متر
غيوم متفرقة على ارتفاع 400 قدم
غيوم مفككة على ارتفاع 700 قدم
غيوم متفرقة على ارتفاع 1700 قدم, مزنة ركامية.
أصبح
من 22 الساعة 16 UTC إلى 22 الساعة 18 UTC
الرؤية: 2100 متر
غيوم مفككة على ارتفاع 400 قدم
غيوم متفرقة على ارتفاع 1300 قدم, مزنة ركامية.
زخات ثلجية خفيفة, غشاء

TAF: UKOO 220506Z 2206/2306 05007G14MPS 6000 SCT004 BKN007 SCT017CB TX03/2212Z TNM02/2304Z BECMG 2216/2218 2100 -SHSN BR BKN004 SCT013CB

أرصاد الطقس والتوقعات من أكثر من 4000 مطار (تقارير الطقس للمطار METAR والتنبؤ بالطقس بالمطارTAF).

المحطات المتاحة هي النقط الصفراء والحمراء على الخريطة.

حرك المؤشر فوق النقطة لمعرفة اسم المحطة.

ثم انقر لمعرفة أرصاد وتوقعات الطقس.

لتغيير الخارطة: اضغط على الأزرار الخضراء مع رمز الصليب الأسود للتكبير. على الزر الأخضر مع شرطة للتصغير، أو على الأسهم الخضراء للخرائط المجاورة.


METAR-TAF: